sensor_id;sensor_type;location;lat;lon;timestamp;temperature;humidity
43963;DHT22;29622;45.534;9.242;2023-02-26T00:01:26;12.30;57.80
43963;DHT22;29622;45.534;9.242;2023-02-26T00:06:30;12.30;57.70
43963;DHT22;29622;45.534;9.242;2023-02-26T00:11:32;12.00;57.80
43963;DHT22;29622;45.534;9.242;2023-02-26T00:16:49;11.90;58.10
43963;DHT22;29622;45.534;9.242;2023-02-26T00:22:18;11.80;58.10
43963;DHT22;29622;45.534;9.242;2023-02-26T00:27:52;11.80;58.20
43963;DHT22;29622;45.534;9.242;2023-02-26T00:33:02;11.70;58.20
43963;DHT22;29622;45.534;9.242;2023-02-26T00:38:09;11.80;58.60
43963;DHT22;29622;45.534;9.242;2023-02-26T00:54:44;11.70;58.20
43963;DHT22;29622;45.534;9.242;2023-02-26T00:59:51;11.60;58.20
43963;DHT22;29622;45.534;9.242;2023-02-26T01:11:09;11.30;58.60
43963;DHT22;29622;45.534;9.242;2023-02-26T01:16:25;11.20;58.60
43963;DHT22;29622;45.534;9.242;2023-02-26T01:21:35;11.00;58.60
43963;DHT22;29622;45.534;9.242;2023-02-26T01:27:12;10.80;58.70
43963;DHT22;29622;45.534;9.242;2023-02-26T01:38:12;10.60;59.10
43963;DHT22;29622;45.534;9.242;2023-02-26T01:43:22;10.50;59.10
43963;DHT22;29622;45.534;9.242;2023-02-26T01:48:38;10.30;59.10
43963;DHT22;29622;45.534;9.242;2023-02-26T01:53:42;10.30;59.40
43963;DHT22;29622;45.534;9.242;2023-02-26T01:58:46;10.20;59.40
43963;DHT22;29622;45.534;9.242;2023-02-26T02:03:48;10.40;59.60
43963;DHT22;29622;45.534;9.242;2023-02-26T02:08:51;10.80;59.50
43963;DHT22;29622;45.534;9.242;2023-02-26T02:24:50;10.40;59.20
43963;DHT22;29622;45.534;9.242;2023-02-26T02:35:35;10.10;59.20
43963;DHT22;29622;45.534;9.242;2023-02-26T02:40:45;10.00;59.30
43963;DHT22;29622;45.534;9.242;2023-02-26T02:51:05;9.70;59.60
43963;DHT22;29622;45.534;9.242;2023-02-26T02:56:32;9.70;59.70
43963;DHT22;29622;45.534;9.242;2023-02-26T03:01:37;9.70;60.00
43963;DHT22;29622;45.534;9.242;2023-02-26T03:06:39;9.60;59.80
43963;DHT22;29622;45.534;9.242;2023-02-26T03:11:40;9.60;59.80
43963;DHT22;29622;45.534;9.242;2023-02-26T03:17:00;9.50;59.90
43963;DHT22;29622;45.534;9.242;2023-02-26T03:27:43;9.40;59.90
43963;DHT22;29622;45.534;9.242;2023-02-26T03:33:05;9.30;60.00
43963;DHT22;29622;45.534;9.242;2023-02-26T03:38:15;9.40;60.60
43963;DHT22;29622;45.534;9.242;2023-02-26T03:43:22;10.20;59.90
43963;DHT22;29622;45.534;9.242;2023-02-26T03:48:26;10.00;59.40
43963;DHT22;29622;45.534;9.242;2023-02-26T03:53:35;10.30;60.70
43963;DHT22;29622;45.534;9.242;2023-02-26T03:58:46;11.20;60.70
43963;DHT22;29622;45.534;9.242;2023-02-26T04:04:12;12.10;58.80
43963;DHT22;29622;45.534;9.242;2023-02-26T04:09:15;12.60;58.90
43963;DHT22;29622;45.534;9.242;2023-02-26T04:14:16;14.00;58.20
43963;DHT22;29622;45.534;9.242;2023-02-26T04:19:18;15.60;56.70
43963;DHT22;29622;45.534;9.242;2023-02-26T04:24:20;16.20;55.60
43963;DHT22;29622;45.534;9.242;2023-02-26T04:36:02;16.90;53.70
43963;DHT22;29622;45.534;9.242;2023-02-26T04:41:25;17.20;53.70
43963;DHT22;29622;45.534;9.242;2023-02-26T04:46:29;17.20;53.30
43963;DHT22;29622;45.534;9.242;2023-02-26T04:51:48;17.50;53.30
43963;DHT22;29622;45.534;9.242;2023-02-26T04:57:41;18.20;53.00
43963;DHT22;29622;45.534;9.242;2023-02-26T05:03:26;18.80;51.90
43963;DHT22;29622;45.534;9.242;2023-02-26T05:09:01;19.00;51.70
43963;DHT22;29622;45.534;9.242;2023-02-26T05:14:09;18.90;51.50
43963;DHT22;29622;45.534;9.242;2023-02-26T05:19:19;19.10;51.70
43963;DHT22;29622;45.534;9.242;2023-02-26T05:24:27;18.90;51.50
43963;DHT22;29622;45.534;9.242;2023-02-26T05:29:34;18.90;51.40
43963;DHT22;29622;45.534;9.242;2023-02-26T05:34:48;18.40;50.60
43963;DHT22;29622;45.534;9.242;2023-02-26T05:46:22;16.10;51.10
43963;DHT22;29622;45.534;9.242;2023-02-26T05:51:26;15.10;52.00
43963;DHT22;29622;45.534;9.242;2023-02-26T06:04:11;13.90;52.50
43963;DHT22;29622;45.534;9.242;2023-02-26T06:22:40;13.90;52.80
43963;DHT22;29622;45.534;9.242;2023-02-26T06:28:33;13.60;53.40
43963;DHT22;29622;45.534;9.242;2023-02-26T06:34:00;13.50;53.30
43963;DHT22;29622;45.534;9.242;2023-02-26T06:39:05;13.40;52.30
43963;DHT22;29622;45.534;9.242;2023-02-26T06:51:15;12.80;53.30
43963;DHT22;29622;45.534;9.242;2023-02-26T06:56:02;12.70;53.30
43963;DHT22;29622;45.534;9.242;2023-02-26T07:01:03;12.50;53.60
43963;DHT22;29622;45.534;9.242;2023-02-26T07:06:19;12.30;53.20
43963;DHT22;29622;45.534;9.242;2023-02-26T07:11:34;12.00;53.50
43963;DHT22;29622;45.534;9.242;2023-02-26T07:17:12;11.70;53.20
43963;DHT22;29622;45.534;9.242;2023-02-26T07:22:20;11.70;53.60
43963;DHT22;29622;45.534;9.242;2023-02-26T07:27:53;11.70;53.90
43963;DHT22;29622;45.534;9.242;2023-02-26T07:39:12;11.50;53.80
43963;DHT22;29622;45.534;9.242;2023-02-26T07:44:23;11.80;54.00
43963;DHT22;29622;45.534;9.242;2023-02-26T07:49:29;11.90;53.80
43963;DHT22;29622;45.534;9.242;2023-02-26T07:55:18;11.80;53.90
43963;DHT22;29622;45.534;9.242;2023-02-26T08:00:32;11.80;54.20
43963;DHT22;29622;45.534;9.242;2023-02-26T08:05:43;11.30;54.10
43963;DHT22;29622;45.534;9.242;2023-02-26T08:17:50;11.10;54.70
43963;DHT22;29622;45.534;9.242;2023-02-26T08:23:35;11.50;55.00
43963;DHT22;29622;45.534;9.242;2023-02-26T08:41:51;13.70;53.30
43963;DHT22;29622;45.534;9.242;2023-02-26T08:54:12;12.90;54.40
43963;DHT22;29622;45.534;9.242;2023-02-26T09:11:47;13.90;53.40
43963;DHT22;29622;45.534;9.242;2023-02-26T09:17:42;13.80;53.50
43963;DHT22;29622;45.534;9.242;2023-02-26T09:22:44;13.60;53.10
43963;DHT22;29622;45.534;9.242;2023-02-26T09:27:45;13.30;53.00
43963;DHT22;29622;45.534;9.242;2023-02-26T09:32:51;13.30;53.60
43963;DHT22;29622;45.534;9.242;2023-02-26T09:38:36;13.90;53.40
43963;DHT22;29622;45.534;9.242;2023-02-26T11:05:25;11.20;53.10
43963;DHT22;29622;45.534;9.242;2023-02-26T11:23:33;12.10;53.30
43963;DHT22;29622;45.534;9.242;2023-02-26T11:28:56;12.30;52.80
43963;DHT22;29622;45.534;9.242;2023-02-26T11:34:08;12.20;52.80
43963;DHT22;29622;45.534;9.242;2023-02-26T11:58:28;9.00;53.80
43963;DHT22;29622;45.534;9.242;2023-02-26T12:09:46;6.90;55.90
43963;DHT22;29622;45.534;9.242;2023-02-26T12:20:36;6.00;56.70
43963;DHT22;29622;45.534;9.242;2023-02-26T13:00:38;6.90;57.20
43963;DHT22;29622;45.534;9.242;2023-02-26T13:28:46;8.10;57.40
43963;DHT22;29622;45.534;9.242;2023-02-26T13:34:32;8.40;57.20
43963;DHT22;29622;45.534;9.242;2023-02-26T13:58:16;8.40;56.90
43963;DHT22;29622;45.534;9.242;2023-02-26T14:09:04;9.10;56.50
43963;DHT22;29622;45.534;9.242;2023-02-26T14:14:18;9.40;57.60
43963;DHT22;29622;45.534;9.242;2023-02-26T14:26:17;10.20;56.10
43963;DHT22;29622;45.534;9.242;2023-02-26T14:37:23;10.80;56.20
43963;DHT22;29622;45.534;9.242;2023-02-26T14:42:57;11.00;55.30
43963;DHT22;29622;45.534;9.242;2023-02-26T14:48:11;11.50;55.00
43963;DHT22;29622;45.534;9.242;2023-02-26T14:54:26;11.00;54.30
43963;DHT22;29622;45.534;9.242;2023-02-26T15:23:46;12.60;53.90
43963;DHT22;29622;45.534;9.242;2023-02-26T15:28:49;12.70;53.20
43963;DHT22;29622;45.534;9.242;2023-02-26T15:33:55;13.10;52.70
43963;DHT22;29622;45.534;9.242;2023-02-26T15:39:12;13.00;51.80
43963;DHT22;29622;45.534;9.242;2023-02-26T15:44:47;12.60;52.00
43963;DHT22;29622;45.534;9.242;2023-02-26T15:50:18;13.00;52.50
43963;DHT22;29622;45.534;9.242;2023-02-26T16:01:48;13.60;51.40
43963;DHT22;29622;45.534;9.242;2023-02-26T16:25:45;15.30;50.30
43963;DHT22;29622;45.534;9.242;2023-02-26T16:30:59;15.10;50.40
43963;DHT22;29622;45.534;9.242;2023-02-26T16:36:15;14.80;50.40
43963;DHT22;29622;45.534;9.242;2023-02-26T16:42:08;14.40;50.70
43963;DHT22;29622;45.534;9.242;2023-02-26T16:47:43;13.90;51.40
43963;DHT22;29622;45.534;9.242;2023-02-26T16:52:51;13.20;51.80
43963;DHT22;29622;45.534;9.242;2023-02-26T16:57:54;13.00;52.30
43963;DHT22;29622;45.534;9.242;2023-02-26T17:23:13;10.40;53.00
43963;DHT22;29622;45.534;9.242;2023-02-26T17:48:03;8.80;54.10
43963;DHT22;29622;45.534;9.242;2023-02-26T18:00:33;8.40;54.60
43963;DHT22;29622;45.534;9.242;2023-02-26T18:06:15;8.40;54.90
43963;DHT22;29622;45.534;9.242;2023-02-26T18:11:20;8.40;54.80
43963;DHT22;29622;45.534;9.242;2023-02-26T18:23:02;8.30;54.90
43963;DHT22;29622;45.534;9.242;2023-02-26T18:35:03;8.20;55.80
43963;DHT22;29622;45.534;9.242;2023-02-26T18:46:30;8.40;55.80
43963;DHT22;29622;45.534;9.242;2023-02-26T18:52:19;8.70;55.70
43963;DHT22;29622;45.534;9.242;2023-02-26T18:57:55;8.70;55.30
43963;DHT22;29622;45.534;9.242;2023-02-26T19:15:47;8.10;55.70
43963;DHT22;29622;45.534;9.242;2023-02-26T19:27:37;9.30;57.00
43963;DHT22;29622;45.534;9.242;2023-02-26T19:32:41;10.40;56.40
43963;DHT22;29622;45.534;9.242;2023-02-26T19:38:10;10.70;55.30
43963;DHT22;29622;45.534;9.242;2023-02-26T19:43:13;10.70;55.20
43963;DHT22;29622;45.534;9.242;2023-02-26T19:48:33;10.80;54.60
43963;DHT22;29622;45.534;9.242;2023-02-26T19:53:38;10.70;54.20
43963;DHT22;29622;45.534;9.242;2023-02-26T19:58:48;10.10;54.20
43963;DHT22;29622;45.534;9.242;2023-02-26T20:10:17;9.40;54.90
43963;DHT22;29622;45.534;9.242;2023-02-26T20:15:50;8.90;54.90
43963;DHT22;29622;45.534;9.242;2023-02-26T20:21:39;8.50;55.30
43963;DHT22;29622;45.534;9.242;2023-02-26T20:27:23;8.20;55.50
43963;DHT22;29622;45.534;9.242;2023-02-26T20:33:17;8.80;55.90
43963;DHT22;29622;45.534;9.242;2023-02-26T20:38:38;10.00;54.80
43963;DHT22;29622;45.534;9.242;2023-02-26T20:43:46;9.90;54.10
43963;DHT22;29622;45.534;9.242;2023-02-26T20:48:59;9.40;54.10
43963;DHT22;29622;45.534;9.242;2023-02-26T20:54:08;9.10;55.10
43963;DHT22;29622;45.534;9.242;2023-02-26T20:59:19;9.40;55.00
43963;DHT22;29622;45.534;9.242;2023-02-26T21:04:23;9.50;54.70
43963;DHT22;29622;45.534;9.242;2023-02-26T21:09:25;8.90;54.70
43963;DHT22;29622;45.534;9.242;2023-02-26T21:14:26;8.40;55.20
43963;DHT22;29622;45.534;9.242;2023-02-26T21:19:41;8.60;55.80
43963;DHT22;29622;45.534;9.242;2023-02-26T21:24:55;9.10;55.30
43963;DHT22;29622;45.534;9.242;2023-02-26T21:41:56;8.50;55.40
43963;DHT22;29622;45.534;9.242;2023-02-26T21:47:19;8.20;55.00
43963;DHT22;29622;45.534;9.242;2023-02-26T21:52:36;7.80;55.50
43963;DHT22;29622;45.534;9.242;2023-02-26T22:04:21;7.30;56.00
43963;DHT22;29622;45.534;9.242;2023-02-26T22:09:36;7.10;56.30
43963;DHT22;29622;45.534;9.242;2023-02-26T22:14:40;7.00;56.30
43963;DHT22;29622;45.534;9.242;2023-02-26T22:19:42;6.90;56.40
43963;DHT22;29622;45.534;9.242;2023-02-26T22:24:52;6.70;56.80
43963;DHT22;29622;45.534;9.242;2023-02-26T22:30:29;6.60;57.00
43963;DHT22;29622;45.534;9.242;2023-02-26T22:35:42;6.60;57.30
43963;DHT22;29622;45.534;9.242;2023-02-26T22:41:17;6.50;57.30
43963;DHT22;29622;45.534;9.242;2023-02-26T22:46:32;6.70;57.70
43963;DHT22;29622;45.534;9.242;2023-02-26T22:52:18;6.90;57.60
43963;DHT22;29622;45.534;9.242;2023-02-26T22:57:44;7.00;57.50
43963;DHT22;29622;45.534;9.242;2023-02-26T23:03:35;7.00;57.50
43963;DHT22;29622;45.534;9.242;2023-02-26T23:09:28;7.00;57.50
43963;DHT22;29622;45.534;9.242;2023-02-26T23:14:54;6.90;57.50
43963;DHT22;29622;45.534;9.242;2023-02-26T23:19:55;7.20;57.50
43963;DHT22;29622;45.534;9.242;2023-02-26T23:24:56;7.30;57.60
43963;DHT22;29622;45.534;9.242;2023-02-26T23:30:06;7.30;57.50
43963;DHT22;29622;45.534;9.242;2023-02-26T23:35:20;7.10;57.30
43963;DHT22;29622;45.534;9.242;2023-02-26T23:40:27;7.00;57.50
43963;DHT22;29622;45.534;9.242;2023-02-26T23:45:51;6.90;57.60
43963;DHT22;29622;45.534;9.242;2023-02-26T23:50:57;7.00;57.40
43963;DHT22;29622;45.534;9.242;2023-02-26T23:56:52;7.00;57.40
